GFA110 OEDF-OBBI
Flight info
| Callsign | GFA110 |
|---|---|
| Flight time | 0h 15m |
| Altitude | 7000 |
| Route | LADN1E LADNA LADNA1 |
| Aircraft | A321/M-SDE3FGHIRWY/LB1 |
Departure
| Time | 2026-05-08 12:19 |
|---|---|
| Airport | King Fahd International Airport (OEDF) |
Arrival
| Time | 2026-05-08 12:34 |
|---|---|
| Airport | Bahrain International Airport (OBBI) |
| Time | Latitude | Longitude | Altitude | Speed | Heading |
|---|---|---|---|---|---|
| 2026-05-08 12:08 | 26.46107 | 49.79632 | 80 ft | 0 kts | 84° |
| 2026-05-08 12:10 | 26.46107 | 49.79631 | 77 ft | 0 kts | 84° |
| 2026-05-08 12:12 | 26.46107 | 49.79628 | 76 ft | 3 kts | 85° |
| 2026-05-08 12:13 | 26.46108 | 49.79601 | 70 ft | 4 kts | 111° |
| 2026-05-08 12:13 | 26.46122 | 49.79580 | 69 ft | 4 kts | 151° |
| 2026-05-08 12:13 | 26.46141 | 49.79571 | 73 ft | 0 kts | 165° |
| 2026-05-08 12:14 | 26.46135 | 49.79572 | 71 ft | 2 kts | 169° |
| 2026-05-08 12:14 | 26.46117 | 49.79568 | 71 ft | 4 kts | 199° |
| 2026-05-08 12:15 | 26.46088 | 49.79556 | 82 ft | 5 kts | 197° |
| 2026-05-08 12:15 | 26.46044 | 49.79553 | 80 ft | 7 kts | 178° |
| 2026-05-08 12:15 | 26.45992 | 49.79569 | 82 ft | 9 kts | 172° |
| 2026-05-08 12:15 | 26.45943 | 49.79533 | 82 ft | 10 kts | 238° |
| 2026-05-08 12:16 | 26.45922 | 49.79457 | 80 ft | 11 kts | 256° |
| 2026-05-08 12:16 | 26.45871 | 49.79397 | 83 ft | 12 kts | 206° |
| 2026-05-08 12:16 | 26.45790 | 49.79409 | 79 ft | 13 kts | 164° |
| 2026-05-08 12:16 | 26.45702 | 49.79438 | 82 ft | 14 kts | 166° |
| 2026-05-08 12:17 | 26.45604 | 49.79468 | 82 ft | 15 kts | 162° |
| 2026-05-08 12:17 | 26.45499 | 49.79492 | 81 ft | 15 kts | 190° |
| 2026-05-08 12:17 | 26.45444 | 49.79396 | 80 ft | 16 kts | 256° |
| 2026-05-08 12:17 | 26.45412 | 49.79269 | 83 ft | 18 kts | 253° |
| 2026-05-08 12:18 | 26.45476 | 49.79181 | 73 ft | 26 kts | 343° |
| 2026-05-08 12:18 | 26.45904 | 49.79049 | 76 ft | 99 kts | 344° |
| 2026-05-08 12:18 | 26.46764 | 49.78774 | 83 ft | 155 kts | 343° |
| 2026-05-08 12:18 | 26.47817 | 49.78439 | 672 ft | 155 kts | 343° |
| 2026-05-08 12:19 | 26.48892 | 49.78115 | 1034 ft | 168 kts | 346° |
| 2026-05-08 12:19 | 26.50116 | 49.78099 | 1171 ft | 191 kts | 18° |
| 2026-05-08 12:19 | 26.51158 | 49.79085 | 1326 ft | 215 kts | 57° |
| 2026-05-08 12:19 | 26.51473 | 49.80831 | 1485 ft | 247 kts | 85° |
| 2026-05-08 12:20 | 26.51391 | 49.82846 | 1748 ft | 273 kts | 92° |
| 2026-05-08 12:20 | 26.51160 | 49.85040 | 1932 ft | 296 kts | 94° |
| 2026-05-08 12:20 | 26.50872 | 49.87407 | 2075 ft | 319 kts | 94° |
| 2026-05-08 12:20 | 26.50573 | 49.89949 | 2209 ft | 340 kts | 94° |
| 2026-05-08 12:21 | 26.50291 | 49.92603 | 2629 ft | 348 kts | 94° |
| 2026-05-08 12:21 | 26.50027 | 49.95354 | 2795 ft | 364 kts | 92° |
| 2026-05-08 12:21 | 26.49779 | 49.98206 | 3138 ft | 373 kts | 92° |
| 2026-05-08 12:21 | 26.49536 | 50.01115 | 3552 ft | 379 kts | 92° |
| 2026-05-08 12:22 | 26.49292 | 50.04056 | 4034 ft | 382 kts | 92° |
| 2026-05-08 12:22 | 26.49045 | 50.07022 | 4490 ft | 386 kts | 93° |
| 2026-05-08 12:22 | 26.48791 | 50.10026 | 4884 ft | 391 kts | 94° |
| 2026-05-08 12:22 | 26.48530 | 50.13049 | 5395 ft | 392 kts | 93° |
| 2026-05-08 12:23 | 26.48268 | 50.16085 | 5888 ft | 394 kts | 93° |
| 2026-05-08 12:23 | 26.48007 | 50.19136 | 6423 ft | 396 kts | 95° |
| 2026-05-08 12:23 | 26.47745 | 50.22199 | 6832 ft | 399 kts | 94° |
| 2026-05-08 12:23 | 26.47475 | 50.25293 | 6942 ft | 402 kts | 94° |
| 2026-05-08 12:24 | 26.47201 | 50.28400 | 6973 ft | 402 kts | 95° |
| 2026-05-08 12:24 | 26.46929 | 50.31491 | 6975 ft | 400 kts | 95° |
| 2026-05-08 12:24 | 26.46655 | 50.34630 | 6975 ft | 401 kts | 94° |
| 2026-05-08 12:24 | 26.46344 | 50.37705 | 6977 ft | 397 kts | 99° |
| 2026-05-08 12:25 | 26.45521 | 50.40628 | 6982 ft | 397 kts | 112° |
| 2026-05-08 12:25 | 26.44435 | 50.43454 | 6980 ft | 399 kts | 112° |
| 2026-05-08 12:25 | 26.43325 | 50.46295 | 6980 ft | 399 kts | 112° |
| 2026-05-08 12:25 | 26.42210 | 50.49120 | 6982 ft | 397 kts | 113° |
| 2026-05-08 12:26 | 26.41087 | 50.51946 | 6980 ft | 400 kts | 113° |
| 2026-05-08 12:26 | 26.39948 | 50.54805 | 6944 ft | 406 kts | 113° |
| 2026-05-08 12:26 | 26.38610 | 50.57555 | 6827 ft | 400 kts | 126° |
| 2026-05-08 12:26 | 26.37001 | 50.59972 | 6706 ft | 377 kts | 124° |
| 2026-05-08 12:27 | 26.35572 | 50.62324 | 6587 ft | 356 kts | 123° |
| 2026-05-08 12:27 | 26.34232 | 50.64558 | 6476 ft | 338 kts | 123° |
| 2026-05-08 12:27 | 26.32960 | 50.66680 | 6360 ft | 319 kts | 123° |
| 2026-05-08 12:27 | 26.31800 | 50.68651 | 6195 ft | 291 kts | 123° |
| 2026-05-08 12:28 | 26.30736 | 50.70459 | 5953 ft | 268 kts | 123° |
| 2026-05-08 12:28 | 26.29750 | 50.72112 | 5732 ft | 246 kts | 123° |
| 2026-05-08 12:28 | 26.28844 | 50.73609 | 5573 ft | 220 kts | 123° |
| 2026-05-08 12:28 | 26.27971 | 50.75013 | 5023 ft | 223 kts | 123° |
| 2026-05-08 12:29 | 26.27080 | 50.76406 | 4642 ft | 218 kts | 123° |
| 2026-05-08 12:29 | 26.26216 | 50.77739 | 4317 ft | 207 kts | 123° |
| 2026-05-08 12:29 | 26.25156 | 50.78802 | 3854 ft | 209 kts | 153° |
| 2026-05-08 12:29 | 26.23731 | 50.78999 | 3373 ft | 209 kts | 193° |
| 2026-05-08 12:30 | 26.22493 | 50.78251 | 2901 ft | 201 kts | 232° |
| 2026-05-08 12:30 | 26.21948 | 50.76910 | 2444 ft | 185 kts | 270° |
| 2026-05-08 12:30 | 26.21897 | 50.75535 | 2137 ft | 170 kts | 278° |
| 2026-05-08 12:30 | 26.21896 | 50.74641 | 1826 ft | 171 kts | 278° |
| 2026-05-08 12:31 | 26.21873 | 50.73350 | 1434 ft | 165 kts | 278° |
| 2026-05-08 12:31 | 26.22047 | 50.72144 | 1144 ft | 153 kts | 302° |
| 2026-05-08 12:31 | 26.22591 | 50.71142 | 1148 ft | 153 kts | 310° |
| 2026-05-08 12:31 | 26.23165 | 50.70148 | 1039 ft | 147 kts | 310° |
| 2026-05-08 12:32 | 26.23704 | 50.69212 | 902 ft | 140 kts | 310° |
| 2026-05-08 12:32 | 26.24229 | 50.68305 | 757 ft | 139 kts | 307° |
| 2026-05-08 12:32 | 26.24741 | 50.67417 | 607 ft | 135 kts | 308° |
| 2026-05-08 12:32 | 26.25250 | 50.66540 | 423 ft | 135 kts | 308° |
| 2026-05-08 12:33 | 26.25758 | 50.65662 | 250 ft | 134 kts | 307° |
| 2026-05-08 12:33 | 26.26265 | 50.64785 | 70 ft | 135 kts | 304° |
| 2026-05-08 12:33 | 26.26735 | 50.63975 | 16 ft | 107 kts | 302° |
| 2026-05-08 12:33 | 26.27042 | 50.63438 | 15 ft | 57 kts | 302° |
| 2026-05-08 12:34 | 26.27206 | 50.63151 | 16 ft | 38 kts | 301° |
| 2026-05-08 12:34 | 26.27254 | 50.62948 | 17 ft | 18 kts | 271° |
| 2026-05-08 12:34 | 26.27220 | 50.62839 | 19 ft | 15 kts | 195° |
| 2026-05-08 12:34 | 26.27157 | 50.62896 | 21 ft | 9 kts | 131° |
| 2026-05-08 12:35 | 26.27117 | 50.62947 | 23 ft | 9 kts | 126° |
| 2026-05-08 12:35 | 26.27079 | 50.63008 | 23 ft | 11 kts | 122° |
| 2026-05-08 12:35 | 26.27035 | 50.63086 | 22 ft | 13 kts | 122° |
| 2026-05-08 12:35 | 26.26981 | 50.63182 | 19 ft | 16 kts | 122° |
| 2026-05-08 12:36 | 26.26918 | 50.63292 | 20 ft | 17 kts | 122° |
| 2026-05-08 12:36 | 26.26849 | 50.63377 | 20 ft | 14 kts | 164° |
| 2026-05-08 12:36 | 26.26780 | 50.63344 | 23 ft | 10 kts | 225° |
| 2026-05-08 12:36 | 26.26720 | 50.63297 | 21 ft | 10 kts | 211° |
| 2026-05-08 12:37 | 26.26693 | 50.63277 | 21 ft | 2 kts | 213° |
| 2026-05-08 12:37 | 26.26687 | 50.63273 | 21 ft | 0 kts | 213° |